• Join FlightAware (Why Join?)
  • Login
  • US Flag 
03:06PM EDT


 

Airport Tracker/Info


-or-


 

Live Flight TrackerFlight Track Log ✈ N53NW ✈ 19-Oct-2013 ✈ KSDF - KPUB

Flight Track Log - Related Links

Times and Time Zones

All times are in EDT time to prevent confusion due to time zone crossing. See the N53NW flight status page for this flight to view local times or setup timezone preferences in your user account.

Time Position Orientation Groundspeed Altitude Reporting Facility
EDT Latitude Longitude Course Direction KTS MPH feet Rate Location/Type
12:11PM 38.2667 -85.7667 245° Southwest 215 247 4,600  Level Louisville TRACON
12:13PM 38.2758 -85.8542 278° West 236 272 8,100 3,180 Climbing Indianapolis Center
12:14PM 38.2469 -85.9261 243° Southwest 238 274 11,900 3,540 Climbing Indianapolis Center
12:15PM 38.2272 -86.0044 252° West 234 269 15,400 3,240 Climbing Indianapolis Center
12:16PM 38.2309 -86.4153 265° West  Level Estimated
12:16PM 38.2075 -86.0817 252° West 230 265 18,600  Level Indianapolis Center
12:17PM 38.1930 -86.5184 245° Southwest  Level FlightAware Approximate
12:17PM 38.1867 -86.1619 252° West 236 272 21,600  Level Indianapolis Center
12:18PM 38.1664 -86.2397 252° West 233 268 24,600 2,580 Climbing Indianapolis Center
12:19PM 38.1478 -86.3128 252° West 221 254 26,900 1,980 Climbing Indianapolis Center
12:20PM 38.1281 -86.3897 252° West 224 258 28,700 1,680 Climbing Indianapolis Center
12:21PM 38.1078 -86.4667 252° West 229 264 30,400 1,560 Climbing Indianapolis Center
12:22PM 38.0869 -86.5442 251° West 231 266 32,000 1,380 Climbing Indianapolis Center
12:23PM 38.0672 -86.6228 252° West 231 266 33,300 1,260 Climbing Indianapolis Center
12:24PM 38.0539 -86.7233 260° West 245 282 34,700 1,200 Climbing Indianapolis Center
12:25PM 38.0553 -86.8111 271° West 246 283 35,800 1,020 Climbing Indianapolis Center
12:26PM 38.0558 -86.8983 270° West 246 283 36,800 900 Climbing Indianapolis Center
12:27PM 38.0567 -86.9853 271° West 244 281 37,700 780 Climbing Indianapolis Center
12:28PM 38.0575 -87.0747 271° West 249 287 38,500 780 Climbing Indianapolis Center
12:29PM 38.0600 -87.1644 272° West 251 289 39,400 720 Climbing Indianapolis Center
12:30PM 38.0614 -87.2542 271° West 252 290 40,000 240 Climbing Indianapolis Center
12:31PM 38.0617 -87.3497 270° West 265 305 40,000  Level Indianapolis Center
12:32PM 38.0633 -87.4536 271° West 285 328 40,000  Level Indianapolis Center
12:33PM 38.0647 -87.5617 271° West 300 345 40,000  Level Indianapolis Center
12:34PM 38.0664 -87.6717 271° West 307 353 40,000  Level Indianapolis Center
12:35PM 38.0675 -87.7769 271° West 300 345 40,000  Level Indianapolis Center
12:36PM 38.0678 -87.8853 270° West 303 349 40,000  Level Indianapolis Center
12:37PM 38.0686 -87.9944 271° West 306 352 40,000  Level Indianapolis Center
12:38PM 38.0700 -88.1028 271° West 307 353 40,000  Level Indianapolis Center
12:39PM 38.0700 -88.2339 270° West 308 354 40,000  Level Indianapolis Center
12:40PM 38.0708 -88.3414 271° West 305 351 40,000  Level Indianapolis Center
12:41PM 38.0717 -88.4503 271° West 306 352 40,000  Level Indianapolis Center
12:42PM 38.0719 -88.5589 270° West 306 352 40,000  Level Indianapolis Center
12:43PM 38.0719 -88.6664 270° West 305 351 40,000  Level Indianapolis Center
12:44PM 38.0719 -88.7731 270° West 302 348 40,000  Level Indianapolis Center
12:45PM 38.0722 -88.8800 270° West 302 348 40,000  Level Indianapolis Center
12:46PM 38.0717 -88.9875 270° West 303 349 40,000  Level Indianapolis Center
12:47PM 38.0711 -89.0942 270° West 302 348 40,000  Level Indianapolis Center
12:48PM 38.0717 -89.2014 270° West 303 349 40,000  Level Indianapolis Center
12:49PM 38.0706 -89.3081 269° West 302 348 40,000  Level Indianapolis Center
12:50PM 38.0689 -89.4378 269° West 305 351 40,000  Level Indianapolis Center
12:52PM 38.0697 -89.5819 270° West 302 348 40,000  Level Kansas City Center
12:53PM 38.0683 -89.6897 269° West 304 350 40,000  Level Kansas City Center
12:54PM 38.0675 -89.8047 270° West 303 349 40,000  Level Kansas City Center
12:56PM 38.0644 -89.9943 269° West  Level FlightAware Approximate
01:03PM 38.0486 -90.7904 269° West  Level FlightAware Approximate
01:04PM 38.0467 -90.9041 269° West  Level FlightAware Approximate
01:05PM 38.0447 -91.0179 269° West  Level FlightAware Approximate
01:06PM 38.0426 -91.1316 269° West  Level FlightAware Approximate
01:07PM 38.0405 -91.2453 269° West  Level FlightAware Approximate
01:08PM 38.0381 -91.3590 269° West  Level FlightAware Approximate
01:09PM 38.0357 -91.4726 268° West  Level FlightAware Approximate
01:10PM 38.0332 -91.5863 268° West  Level FlightAware Approximate
01:11PM 38.0305 -91.7000 268° West  Level FlightAware Approximate
01:12PM 38.0278 -91.8137 268° West  Level FlightAware Approximate
01:13PM 38.0249 -91.9273 268° West  Level FlightAware Approximate
01:14PM 38.0219 -92.0410 268° West  Level FlightAware Approximate
01:15PM 38.0189 -92.1546 268° West  Level FlightAware Approximate
01:16PM 38.0155 -92.2682 268° West  Level FlightAware Approximate
01:16PM 38.0239 -92.1489 267° West 318 366 40,000  Level Kansas City Center
01:17PM 38.0117 -92.3818 268° West  Level FlightAware Approximate
01:17PM 38.0200 -92.2611 268° West 318 366 40,000  Level Kansas City Center
01:18PM 38.0078 -92.4954 268° West  Level FlightAware Approximate
01:18PM 38.0175 -92.3744 268° West 320 368 40,000  Level Kansas City Center
01:19PM 38.0038 -92.6090 267° West  Level FlightAware Approximate
01:19PM 38.0164 -92.4861 269° West 319 367 40,000  Level Kansas City Center
01:20PM 37.9997 -92.7225 267° West  Level FlightAware Approximate
01:20PM 38.0106 -92.6197 267° West 318 366 40,000  Level Kansas City Center
01:21PM 37.9955 -92.8361 267° West  Level FlightAware Approximate
01:21PM 38.0064 -92.7314 267° West 318 366 40,000  Level Kansas City Center
01:22PM 38.0028 -92.8472 268° West 318 366 40,000  Level Kansas City Center
01:23PM 37.9981 -92.9600 267° West 320 368 40,000  Level Kansas City Center
01:24PM 37.9942 -93.0719 268° West 318 366 40,000  Level Kansas City Center
01:25PM 37.9903 -93.1844 268° West 318 366 40,000  Level Kansas City Center
01:26PM 37.9861 -93.2981 267° West 320 368 40,000  Level Kansas City Center
01:27PM 37.9808 -93.4342 267° West 322 371 40,000  Level Kansas City Center
01:28PM 37.9764 -93.5464 267° West 321 369 40,000  Level Kansas City Center
01:29PM 37.9717 -93.6592 267° West 319 367 40,000  Level Kansas City Center
01:30PM 37.9667 -93.7728 267° West 322 371 40,000  Level Kansas City Center
01:31PM 37.9617 -93.8867 267° West 323 372 40,000  Level Kansas City Center
01:32PM 37.9564 -93.9994 267° West 321 369 40,000  Level Kansas City Center
01:33PM 37.9511 -94.1233 267° West 322 371 40,000  Level Kansas City Center
01:34PM 37.9469 -94.2325 267° West 323 372 40,000  Level Kansas City Center
01:35PM 37.9394 -94.3650 266° West 326 375 40,000  Level Kansas City Center
01:36PM 37.9358 -94.4700 268° West 325 374 40,000  Level Kansas City Center
01:37PM 37.9294 -94.5969 266° West 324 373 40,000  Level Kansas City Center
01:38PM 37.9239 -94.7061 266° West 324 373 40,000  Level Kansas City Center
01:39PM 37.9172 -94.8347 266° West 326 375 40,000  Level Kansas City Center
01:40PM 37.9122 -94.9436 267° West 326 375 40,000  Level Kansas City Center
01:41PM 37.9050 -95.0714 266° West 325 374 40,000  Level Kansas City Center
01:42PM 37.8997 -95.1831 267° West 328 377 40,000  Level Kansas City Center
01:43PM 37.8936 -95.2969 266° West 327 376 40,000  Level Kansas City Center
01:44PM 37.8869 -95.4125 266° West 328 377 40,000  Level Kansas City Center
01:46PM 37.8789 -95.5489 266° West 327 376 40,000  Level Kansas City Center
01:47PM 37.8728 -95.6631 266° West 325 374 40,000  Level Kansas City Center
01:48PM 37.8653 -95.7789 265° West 328 377 40,000  Level Kansas City Center
01:49PM 37.8594 -95.8906 266° West 324 373 40,000  Level Kansas City Center
01:50PM 37.8517 -96.0050 265° West 326 375 40,000  Level Kansas City Center
01:51PM 37.8444 -96.1197 265° West 331 381 40,000  Level Kansas City Center
01:52PM 37.8358 -96.2592 266° West 332 382 40,000  Level Kansas City Center
01:53PM 37.8283 -96.3756 265° West 331 381 40,000  Level Kansas City Center
01:54PM 37.8203 -96.4933 265° West 334 384 40,000  Level Kansas City Center
01:55PM 37.8125 -96.6094 265° West 334 384 40,000  Level Kansas City Center
01:56PM 37.8053 -96.7267 266° West 334 384 40,000  Level Kansas City Center
01:57PM 37.7967 -96.8436 265° West 334 384 40,000  Level Kansas City Center
01:58PM 37.7892 -96.9617 265° West 337 388 40,000  Level Kansas City Center
01:59PM 37.7800 -97.1039 265° West 338 389 40,000  Level Kansas City Center
02:00PM 37.7700 -97.2214 264° West 338 389 40,000  Level Kansas City Center
02:01PM 37.7619 -97.3400 265° West 338 389 40,000  Level Kansas City Center
02:02PM 37.7531 -97.4639 265° West 335 386 40,000  Level Kansas City Center
02:03PM 37.7453 -97.5836 265° West 338 389 40,000  Level Kansas City Center
02:04PM 37.7528 -97.7017 275° West 336 387 40,000  Level Kansas City Center
02:05PM 37.7606 -97.8219 275° West 340 391 40,000  Level Kansas City Center
02:06PM 37.7694 -97.9408 275° West 341 392 40,000  Level Kansas City Center
02:07PM 37.7786 -98.0833 275° West 339 390 40,000  Level Kansas City Center
02:08PM 37.7853 -98.2036 274° West 341 392 40,000  Level Kansas City Center
02:09PM 37.7933 -98.3233 275° West 340 391 40,000  Level Kansas City Center
02:10PM 37.8003 -98.4425 274° West 339 390 40,000  Level Kansas City Center
02:11PM 37.8072 -98.5619 274° West 340 391 40,000  Level Kansas City Center
02:12PM 37.8144 -98.6822 274° West 341 392 40,000  Level Kansas City Center
02:13PM 37.8219 -98.8022 275° West 342 394 40,000  Level Kansas City Center
02:14PM 37.8283 -98.9231 274° West 344 396 40,000  Level Kansas City Center
02:15PM 37.8372 -99.0661 275° West 341 392 40,000  Level Kansas City Center
02:17PM 37.8431 -99.1886 273° West 346 398 40,000  Level Kansas City Center
02:18PM 37.8503 -99.3086 274° West 344 396 40,000  Level Kansas City Center
02:19PM 37.8564 -99.4303 274° West 346 398 40,000  Level Kansas City Center
02:20PM 37.8636 -99.5583 274° West 348 400 40,000  Level Kansas City Center
02:21PM 37.8697 -99.6942 273° West 348 400 40,000  Level Kansas City Center
02:22PM 37.8756 -99.8122 274° West 350 403 40,000  Level Kansas City Center
02:23PM 37.8817 -99.9483 273° West 349 402 40,000  Level Kansas City Center
02:24PM 37.8886 -100.0653 274° West 349 402 40,000  Level Kansas City Center
02:25PM 37.8944 -100.2025 273° West 350 403 40,000  Level Kansas City Center
02:26PM 37.9003 -100.3194 274° West 350 403 40,000  Level Kansas City Center
02:27PM 37.9061 -100.4569 273° West 351 404 40,000  Level Kansas City Center
02:28PM 37.9114 -100.5742 273° West 350 403 40,000  Level Kansas City Center
02:29PM 37.9164 -100.7119 273° West 352 405 40,000  Level Kansas City Center
02:30PM 37.9286 -100.8275 278° West 350 403 40,000  Level Kansas City Center
02:31PM 37.9450 -100.9628 279° West 351 404 40,000  Level Kansas City Center
02:32PM 37.9589 -101.0794 279° West 352 405 40,000  Level Kansas City Center
02:33PM 37.9739 -101.2144 278° West 350 403 40,000  Level Kansas City Center
02:34PM 37.9875 -101.3292 279° West 346 398 40,000  Level Kansas City Center
02:35PM 38.0031 -101.4636 278° West 346 398 40,000  Level Kansas City Center
02:36PM 38.0161 -101.5786 278° West 346 398 40,000  Level Kansas City Center
02:37PM 38.0306 -101.7122 278° West 344 396 40,000 -300 Level Kansas City Center
02:38PM 38.0425 -101.8275 278° West 345 397 39,400 -900 Descending Kansas City Center
02:39PM 38.0536 -101.9233 278° West 338 389 38,300 -1,500 Descending Denver Center
02:40PM 38.0672 -102.0617 277° West 352 405 36,600 -1,140 Descending Denver Center
02:41PM 38.0800 -102.1750 278° West 338 389 36,000 -300 Descending Denver Center
02:42PM 38.0936 -102.3044 278° West 332 382 36,000 -1,380 Level Denver Center
02:44PM 38.1008 -102.4373 284° West  Level FlightAware Approximate
02:49PM 38.1806 -103.1714 280° West 353 406 24,700  Level Denver Center
02:50PM 38.1936 -103.3097 277° West 353 406 22,000 -2,460 Descending Denver Center
02:51PM 38.1828 -103.2269 277° West  Level FlightAware Approximate
02:51PM 38.2044 -103.4242 277° West 345 397 19,700  Level Denver Center
02:52PM 38.1923 -103.3402 276° West  Level FlightAware Approximate
02:52PM 38.2144 -103.5306 277° West 323 372 17,500  Level Denver Center
02:53PM 38.2000 -103.4537 270° West  Level FlightAware Approximate
02:53PM 38.2250 -103.6508 276° West 309 356 14,800  Level Denver Center
02:54PM 38.2075 -103.5670 278° West  Level FlightAware Approximate
02:55PM 38.2209 -103.6797 280° West  Level FlightAware Approximate
02:55PM 38.2344 -103.7533 277° West 308 354 13,000  Level Denver Center
02:56PM 38.2453 -103.8711 277° West 305 351 13,000 -720 Level Denver Center
02:57PM 38.2544 -103.9714 277° West 302 348 11,600 -2,040 Descending Denver Center
02:58PM 38.2639 -104.0800 276° West 291 335 8,900 -2,340 Descending Denver Center
02:59PM 38.2728 -104.1633 278° West 271 312 6,800 -1,080 Descending Denver Center
03:00PM 38.2842 -104.2472 280° West 241 277 6,700 -60 Descending Denver Center
03:01PM 38.2911 -104.2969 280° West 182 209 6,700 -60 Level Denver Center
03:02PM 38.2900 -104.3514 269° West 164 189 6,600 -480 Descending Denver Center
03:03PM 38.2894 -104.4114 269° West 158 182 5,800 -780 Descending Denver Center
03:04PM 38.2881 -104.4531 268° West 143 165 5,100 -720 Descending Denver Center
03:06PM 38.2833 -104.4833 270° West  Level FlightAware Approximate
03:13PM 38.2900 -104.4980 270° West  Level Estimated
03:14PM 38.2900 -104.4980 270° West  Level Estimated